createdAt,value
2019-02-05T00:02:52.280Z,94.140625
2019-02-05T00:08:15.035Z,94.555664
2019-02-05T00:13:37.697Z,94.244385
2019-02-05T00:19:01.478Z,94.976807
2019-02-05T00:24:24.248Z,96.533203
2019-02-05T00:29:47.039Z,97.833252
2019-02-05T00:35:09.709Z,98.76709
2019-02-05T00:40:32.905Z,99.914551
2019-02-05T00:45:54.547Z,99.993896
2019-02-05T00:51:17.275Z,99.993896
2019-02-05T00:56:39.983Z,99.993896
2019-02-05T01:02:02.845Z,99.993896
2019-02-05T01:07:25.679Z,99.993896
2019-02-05T01:12:48.400Z,99.993896
2019-02-05T01:18:12.218Z,99.993896
2019-02-05T01:23:35.304Z,99.993896
2019-02-05T01:28:58.279Z,99.993896
2019-02-05T01:34:20.927Z,99.993896
2019-02-05T01:39:43.671Z,99.993896
2019-02-05T01:45:06.390Z,99.993896
2019-02-05T01:50:29.085Z,99.993896
2019-02-05T01:55:52.380Z,99.993896
2019-02-05T02:01:15.275Z,99.993896
2019-02-05T02:06:38.926Z,99.993896
2019-02-05T02:12:01.783Z,99.993896
2019-02-05T02:17:24.773Z,99.993896
2019-02-05T02:22:48.148Z,99.993896
2019-02-05T02:28:11.766Z,99.993896
2019-02-05T02:33:34.548Z,99.993896
2019-02-05T02:38:57.415Z,99.993896
2019-02-05T02:44:20.141Z,99.993896
2019-02-05T02:49:42.979Z,99.993896
2019-02-05T02:55:05.734Z,99.993896
2019-02-05T03:00:28.526Z,99.993896
2019-02-05T03:05:52.629Z,99.993896
2019-02-05T03:11:15.249Z,99.993896
2019-02-05T03:16:38.068Z,99.993896
2019-02-05T03:22:00.848Z,99.993896
2019-02-05T03:27:24.254Z,99.993896
2019-02-05T03:32:47.023Z,99.993896
2019-02-05T03:38:10.063Z,99.993896
2019-02-05T03:43:32.980Z,99.993896
2019-02-05T03:48:56.715Z,99.993896
2019-02-05T03:54:19.447Z,99.993896
2019-02-05T03:59:44.234Z,99.993896
2019-02-05T04:05:07.151Z,99.993896
2019-02-05T04:10:38.660Z,99.993896
2019-02-05T04:16:02.360Z,99.993896
2019-02-05T04:21:25.118Z,99.993896
2019-02-05T04:26:47.932Z,99.993896
2019-02-05T04:32:10.725Z,99.993896
2019-02-05T04:37:33.902Z,99.993896
2019-02-05T04:42:57.802Z,99.993896
2019-02-05T04:48:20.563Z,99.993896
2019-02-05T04:53:43.271Z,99.993896
2019-02-05T04:59:06.023Z,99.993896
2019-02-05T05:04:29.039Z,99.993896
2019-02-05T05:09:51.683Z,99.993896
2019-02-05T05:15:14.382Z,99.993896
2019-02-05T05:20:37.207Z,99.993896
2019-02-05T05:25:59.980Z,99.993896
2019-02-05T05:31:22.813Z,99.993896
2019-02-05T05:36:45.581Z,99.993896
2019-02-05T05:42:08.293Z,99.993896
2019-02-05T05:47:31.160Z,99.993896
2019-02-05T05:52:53.848Z,99.993896
2019-02-05T05:58:22.472Z,99.993896
2019-02-05T06:03:39.594Z,99.993896
2019-02-05T06:09:02.349Z,99.993896
2019-02-05T06:14:25.093Z,99.993896
2019-02-05T06:19:47.822Z,99.993896
2019-02-05T06:25:10.544Z,99.993896
2019-02-05T06:30:33.363Z,99.993896
2019-02-05T06:35:56.134Z,99.993896
2019-02-05T06:41:18.874Z,99.993896
2019-02-05T06:46:41.669Z,99.993896
2019-02-05T06:52:04.447Z,99.993896
2019-02-05T06:57:27.942Z,99.993896
2019-02-05T07:02:52.856Z,99.993896
2019-02-05T07:08:13.480Z,99.993896
2019-02-05T07:13:36.641Z,99.993896
2019-02-05T07:19:00.316Z,99.993896
2019-02-05T07:24:23.125Z,99.993896
2019-02-05T07:29:45.874Z,99.993896
2019-02-05T07:35:08.921Z,99.993896
2019-02-05T07:40:31.728Z,99.993896
2019-02-05T07:45:54.677Z,99.993896
2019-02-05T07:51:17.357Z,99.993896
2019-02-05T07:56:41.281Z,99.993896
2019-02-05T08:02:04.084Z,99.993896
2019-02-05T08:07:27.190Z,99.993896
2019-02-05T08:12:50.080Z,99.993896
2019-02-05T08:18:13.685Z,99.993896
2019-02-05T08:24:10.400Z,99.993896
2019-02-05T08:29:33.726Z,99.993896
2019-02-05T08:34:56.737Z,99.993896
2019-02-05T08:40:19.706Z,99.993896
2019-02-05T08:45:42.528Z,99.993896
2019-02-05T08:51:06.294Z,99.993896
2019-02-05T08:56:29.122Z,99.993896
2019-02-05T09:01:53.239Z,99.993896
2019-02-05T09:07:15.903Z,99.993896
2019-02-05T09:12:49.081Z,99.993896
2019-02-05T09:18:20.820Z,99.993896
2019-02-05T09:23:43.805Z,99.993896
2019-02-05T09:29:06.654Z,99.993896
2019-02-05T09:34:29.558Z,99.993896
2019-02-05T09:39:52.366Z,99.993896
2019-02-05T09:45:15.541Z,99.993896
2019-02-05T09:50:47.121Z,99.993896
2019-02-05T09:56:09.891Z,99.993896
2019-02-05T10:01:32.662Z,99.993896
2019-02-05T10:06:55.653Z,99.993896
2019-02-05T10:12:28.378Z,99.993896
2019-02-05T10:17:51.266Z,99.993896
2019-02-05T10:23:15.080Z,99.993896
2019-02-05T10:28:38.673Z,99.993896
2019-02-05T10:34:12.027Z,99.993896
2019-02-05T10:39:34.996Z,99.993896
2019-02-05T10:44:58.508Z,99.993896
2019-02-05T10:50:21.298Z,99.993896
2019-02-05T10:55:44.055Z,99.993896
2019-02-05T11:01:07.862Z,99.993896
2019-02-05T11:06:30.610Z,99.993896
2019-02-05T11:11:53.479Z,99.993896
2019-02-05T11:17:16.355Z,99.993896
2019-02-05T11:22:39.234Z,99.993896
2019-02-05T11:28:02.269Z,99.993896
2019-02-05T11:33:25.123Z,99.993896
2019-02-05T11:38:48.080Z,99.993896
2019-02-05T11:44:10.953Z,99.993896
2019-02-05T11:49:33.936Z,99.993896
2019-02-05T11:54:57.457Z,99.713135
2019-02-05T12:00:31.754Z,99.505615
2019-02-05T12:05:44.145Z,99.993896
2019-02-05T12:11:06.908Z,99.505615
2019-02-05T12:16:29.706Z,99.041748
2019-02-05T12:21:52.510Z,98.834229
2019-02-05T12:27:16.157Z,98.156738
2019-02-05T12:32:39.021Z,98.730469
2019-02-05T12:38:01.944Z,98.730469
2019-02-05T12:43:24.656Z,98.10791
2019-02-05T12:48:47.524Z,98.419189
2019-02-05T12:54:10.309Z,98.730469
2019-02-05T12:59:33.238Z,98.21167
2019-02-05T13:04:56.809Z,97.796631
2019-02-05T13:10:19.663Z,98.052979
2019-02-05T13:15:42.467Z,97.43042
2019-02-05T13:21:05.282Z,97.32666
2019-02-05T13:26:28.286Z,97.2229
2019-02-05T13:31:51.103Z,96.807861
2019-02-05T13:37:13.979Z,97.2229
2019-02-05T13:42:37.541Z,97.32666
2019-02-05T13:48:00.313Z,96.704102
2019-02-05T13:53:23.163Z,96.600342
2019-02-05T13:58:46.410Z,96.496582
2019-02-05T14:04:09.566Z,96.392822
2019-02-05T14:09:33.585Z,97.015381
2019-02-05T14:14:56.590Z,96.807861
2019-02-05T14:20:19.550Z,96.081543
2019-02-05T14:25:42.659Z,95.977783
2019-02-05T14:31:05.858Z,96.185303
2019-02-05T14:36:28.598Z,96.185303
2019-02-05T14:41:51.477Z,96.600342
2019-02-05T14:47:14.490Z,95.874023
2019-02-05T14:52:37.320Z,96.185303
2019-02-05T14:58:09.774Z,96.289062
2019-02-05T15:03:32.665Z,95.874023
2019-02-05T15:09:05.071Z,95.874023
2019-02-05T15:14:28.077Z,95.666504
2019-02-05T15:20:01.879Z,95.562744
2019-02-05T15:26:02.343Z,96.081543
2019-02-05T15:31:26.728Z,95.916748
2019-02-05T15:36:47.908Z,96.435547
2019-02-05T15:42:11.731Z,95.916748
2019-02-05T15:47:35.701Z,96.435547
2019-02-05T15:52:58.531Z,95.812988
2019-02-05T15:58:22.233Z,96.228027
2019-02-05T16:03:45.029Z,96.124268
2019-02-05T16:09:07.791Z,96.746826
2019-02-05T16:14:30.797Z,97.058105
2019-02-05T16:19:53.559Z,97.827148
2019-02-05T16:25:16.355Z,98.345947
2019-02-05T16:30:39.919Z,98.760986
2019-02-05T16:36:03.544Z,98.968506
2019-02-05T16:41:26.476Z,99.432373
2019-02-05T16:46:49.307Z,99.743652
2019-02-05T16:52:12.114Z,99.847412
2019-02-05T16:57:34.985Z,99.993896
2019-02-05T17:02:57.708Z,99.951172
2019-02-05T17:08:21.290Z,99.847412
2019-02-05T17:13:44.140Z,99.639893
2019-02-05T17:19:06.936Z,99.432373
2019-02-05T17:24:29.859Z,99.682617
2019-02-05T17:29:52.775Z,99.475098
2019-02-05T17:35:24.690Z,98.913574
2019-02-05T17:40:50.651Z,99.060059
2019-02-05T17:46:13.401Z,99.371338
2019-02-05T17:51:36.350Z,99.267578
2019-02-05T17:57:34.459Z,99.267578
2019-02-05T18:02:58.001Z,99.475098
2019-02-05T18:08:19.588Z,99.578857
2019-02-05T18:13:42.329Z,99.682617
2019-02-05T18:19:05.170Z,99.578857
2019-02-05T18:24:29.090Z,99.578857
2019-02-05T18:29:51.886Z,99.79248
2019-02-05T18:35:16.132Z,99.993896
2019-02-05T18:40:38.981Z,99.993896
2019-02-05T18:46:12.755Z,99.993896
2019-02-05T18:51:43.291Z,99.993896
2019-02-05T18:57:06.354Z,99.993896
2019-02-05T19:02:29.162Z,99.993896
2019-02-05T19:08:01.925Z,99.993896
2019-02-05T19:13:24.690Z,99.993896
2019-02-05T19:18:47.523Z,99.993896
2019-02-05T19:24:11.588Z,99.993896
2019-02-05T19:29:34.569Z,99.993896
2019-02-05T19:34:58.397Z,99.993896
2019-02-05T19:40:21.568Z,99.993896
2019-02-05T19:45:44.570Z,99.993896
2019-02-05T19:51:07.544Z,99.993896
2019-02-05T19:56:38.025Z,99.993896
2019-02-05T20:02:04.232Z,99.993896
2019-02-05T20:07:27.123Z,99.993896
2019-02-05T20:12:51.007Z,99.993896
2019-02-05T20:18:13.817Z,99.993896
2019-02-05T20:23:36.656Z,99.993896
2019-02-05T20:28:59.428Z,99.993896
2019-02-05T20:34:22.333Z,99.993896
2019-02-05T20:39:45.304Z,99.993896
2019-02-05T20:45:08.098Z,99.993896
2019-02-05T20:50:30.844Z,99.993896
2019-02-05T20:55:53.696Z,99.993896
2019-02-05T21:01:16.903Z,99.993896
2019-02-05T21:06:40.168Z,99.993896
2019-02-05T21:12:03.939Z,99.993896
2019-02-05T21:17:26.716Z,99.993896
2019-02-05T21:22:49.596Z,99.993896
2019-02-05T21:28:13.762Z,99.639893
2019-02-05T21:33:45.789Z,99.432373
2019-02-05T21:39:09.654Z,99.121094
2019-02-05T21:44:32.415Z,99.017334
2019-02-05T21:49:55.153Z,99.432373
2019-02-05T21:55:18.237Z,99.432373
2019-02-05T22:00:41.165Z,99.328613
2019-02-05T22:06:03.917Z,99.432373
2019-02-05T22:11:27.926Z,99.432373
2019-02-05T22:16:50.672Z,99.432373
2019-02-05T22:22:13.584Z,99.432373
2019-02-05T22:27:36.349Z,98.913574
2019-02-05T22:32:59.234Z,98.706055
2019-02-05T22:38:22.399Z,98.602295
2019-02-05T22:43:45.106Z,98.602295
2019-02-05T22:49:07.956Z,98.498535
2019-02-05T22:54:30.809Z,98.498535
2019-02-05T22:59:54.453Z,98.602295
2019-02-05T23:05:18.007Z,98.706055
2019-02-05T23:10:42.052Z,98.693848
2019-02-05T23:16:04.800Z,99.884033
2019-02-05T23:21:27.671Z,99.993896
2019-02-05T23:26:50.366Z,99.993896
2019-02-05T23:32:14.013Z,99.993896
2019-02-05T23:37:36.733Z,99.993896
2019-02-05T23:42:59.562Z,99.993896
2019-02-05T23:48:22.460Z,99.993896
2019-02-05T23:53:45.228Z,99.993896
2019-02-05T23:59:08.117Z,99.993896
